createdAt,value
2019-05-14T00:00:42.795Z,49.39
2019-05-14T00:03:12.833Z,48.65
2019-05-14T00:05:42.901Z,50.44
2019-05-14T00:08:12.939Z,50.35
2019-05-14T00:10:42.879Z,50.24
2019-05-14T00:13:12.843Z,49.99
2019-05-14T00:15:42.840Z,52.49
2019-05-14T00:18:12.740Z,52.18
2019-05-14T00:20:42.689Z,54.87
2019-05-14T00:23:12.661Z,54.87
2019-05-14T00:25:42.661Z,54.55
2019-05-14T00:28:12.693Z,53.11
2019-05-14T00:30:42.697Z,54.10
2019-05-14T00:33:12.661Z,54.06
2019-05-14T00:35:42.728Z,54.20
2019-05-14T00:38:12.729Z,56.42
2019-05-14T00:40:42.697Z,56.42
2019-05-14T00:43:12.768Z,56.29
2019-05-14T00:45:42.732Z,56.60
2019-05-14T00:48:13.037Z,56.36
2019-05-14T00:50:43.104Z,58.81
2019-05-14T00:53:13.105Z,58.90
2019-05-14T00:55:43.006Z,58.52
2019-05-14T00:58:12.944Z,59.29
2019-05-14T01:00:42.912Z,60.47
2019-05-14T01:03:12.917Z,60.01
2019-05-14T01:05:42.957Z,59.74
2019-05-14T01:08:13.120Z,60.46
2019-05-14T01:10:43.050Z,60.00
2019-05-14T01:13:13.029Z,60.24
2019-05-14T01:15:43.095Z,60.99
2019-05-14T01:18:13.075Z,61.34
2019-05-14T01:20:43.074Z,61.44
2019-05-14T01:23:13.108Z,61.57
2019-05-14T01:25:43.112Z,62.05
2019-05-14T01:28:13.079Z,63.12
2019-05-14T01:30:43.439Z,62.71
2019-05-14T01:33:13.417Z,63.53
2019-05-14T01:35:43.343Z,63.35
2019-05-14T01:38:13.237Z,64.47
2019-05-14T01:40:43.090Z,64.47
2019-05-14T01:43:13.061Z,64.27
2019-05-14T01:45:43.132Z,64.25
2019-05-14T01:48:13.107Z,64.87
2019-05-14T01:50:43.336Z,66.03
2019-05-14T01:53:13.592Z,65.34
2019-05-14T01:55:43.592Z,65.04
2019-05-14T01:58:13.852Z,65.20
2019-05-14T02:00:43.863Z,65.82
2019-05-14T02:03:13.784Z,66.23
2019-05-14T02:05:44.108Z,66.23
2019-05-14T02:08:14.113Z,65.83
2019-05-14T02:10:44.380Z,65.83
2019-05-14T02:13:14.472Z,65.65
2019-05-14T02:15:44.510Z,65.65
2019-05-14T02:18:14.514Z,66.06
2019-05-14T02:20:44.772Z,66.06
2019-05-14T02:23:14.780Z,66.42
2019-05-14T02:25:44.816Z,66.42
2019-05-14T02:28:14.821Z,67.44
2019-05-14T02:30:53.649Z,67.44
2019-05-14T02:33:19.231Z,67.60
2019-05-14T02:35:49.482Z,67.29
2019-05-14T02:38:20.198Z,67.20
2019-05-14T02:40:50.167Z,67.36
2019-05-14T02:43:20.458Z,67.36
2019-05-14T02:46:09.032Z,67.15
2019-05-14T02:48:22.704Z,67.53
2019-05-14T02:50:54.042Z,67.42
2019-05-14T02:53:24.041Z,67.20
2019-05-14T02:55:54.004Z,66.75
2019-05-14T02:58:24.007Z,66.75
2019-05-14T03:00:53.972Z,67.38
2019-05-14T03:03:24.339Z,67.38
2019-05-14T03:05:54.597Z,67.27
2019-05-14T03:08:24.890Z,67.35
2019-05-14T03:10:55.250Z,67.46
2019-05-14T03:13:25.546Z,67.61
2019-05-14T03:15:59.032Z,67.55
2019-05-14T03:18:29.571Z,67.47
2019-05-14T03:21:00.900Z,67.77
2019-05-14T03:23:31.524Z,67.79
2019-05-14T03:26:01.797Z,68.01
2019-05-14T03:28:32.080Z,68.15
2019-05-14T03:31:03.785Z,68.22
2019-05-14T03:33:34.551Z,68.22
2019-05-14T03:36:11.406Z,68.27
2019-05-14T03:38:39.649Z,68.06
2019-05-14T03:41:13.771Z,67.21
2019-05-14T03:43:41.645Z,67.27
2019-05-14T03:46:11.915Z,67.82
2019-05-14T03:48:42.227Z,68.23
2019-05-14T03:51:12.647Z,68.16
2019-05-14T03:53:56.895Z,68.05
2019-05-14T03:56:14.990Z,67.71
2019-05-14T03:58:49.242Z,67.24
2019-05-14T04:01:20.138Z,67.27
2019-05-14T04:03:50.728Z,67.76
2019-05-14T04:06:22.977Z,67.56
2019-05-14T04:08:54.473Z,67.46
2019-05-14T04:11:29.402Z,67.45
2019-05-14T04:14:01.310Z,67.21
2019-05-14T04:16:33.692Z,67.05
2019-05-14T04:19:05.437Z,66.85
2019-05-14T04:21:39.819Z,66.85
2019-05-14T04:24:11.967Z,66.67
2019-05-14T04:26:58.446Z,66.87
2019-05-14T04:29:19.639Z,67.96
2019-05-14T04:31:51.829Z,67.54
2019-05-14T04:34:22.141Z,67.07
2019-05-14T04:36:52.714Z,67.14
2019-05-14T04:39:23.124Z,67.38
2019-05-14T04:41:53.119Z,67.38
2019-05-14T04:44:23.258Z,67.09
2019-05-14T04:46:53.228Z,67.21
2019-05-14T04:49:23.470Z,66.69
2019-05-14T04:51:54.461Z,66.18
2019-05-14T04:54:24.564Z,66.17
2019-05-14T04:56:54.606Z,66.17
2019-05-14T04:59:24.607Z,65.97
2019-05-14T05:01:54.602Z,65.76
2019-05-14T05:04:24.536Z,65.26
2019-05-14T05:06:54.502Z,64.81
2019-05-14T05:09:24.500Z,64.43
2019-05-14T05:11:54.401Z,63.85
2019-05-14T05:14:24.397Z,62.40
2019-05-14T05:16:54.322Z,62.61
2019-05-14T05:19:24.505Z,62.53
2019-05-14T05:21:54.520Z,62.53
2019-05-14T05:24:24.524Z,61.84
2019-05-14T05:26:54.420Z,59.05
2019-05-14T05:29:24.284Z,59.20
2019-05-14T05:31:54.233Z,58.42
2019-05-14T05:34:24.059Z,57.88
2019-05-14T05:36:54.133Z,54.75
2019-05-14T05:39:24.171Z,49.79
2019-05-14T05:41:54.173Z,48.52
2019-05-14T05:44:24.147Z,46.43
2019-05-14T05:46:54.081Z,45.84
2019-05-14T05:49:24.048Z,45.43
2019-05-14T05:51:54.050Z,45.59
2019-05-14T05:54:23.956Z,45.43
2019-05-14T05:56:53.959Z,43.83
2019-05-14T05:59:23.956Z,44.59
2019-05-14T06:01:54.396Z,44.63
2019-05-14T06:04:24.451Z,44.09
2019-05-14T06:06:54.434Z,43.57
2019-05-14T06:09:24.380Z,43.04
2019-05-14T06:11:54.493Z,41.75
2019-05-14T06:14:24.541Z,41.31
2019-05-14T06:16:54.622Z,41.44
2019-05-14T06:19:24.598Z,41.27
2019-05-14T06:21:54.617Z,41.93
2019-05-14T06:24:24.579Z,41.71
2019-05-14T06:26:54.552Z,41.08
2019-05-14T06:29:24.453Z,40.12
2019-05-14T06:31:54.472Z,39.13
2019-05-14T06:34:24.469Z,38.92
2019-05-14T06:36:54.391Z,39.35
2019-05-14T06:39:24.454Z,40.30
2019-05-14T06:41:54.431Z,39.90
2019-05-14T06:44:24.310Z,40.64
2019-05-14T06:46:54.263Z,38.19
2019-05-14T06:49:24.342Z,38.43
2019-05-14T06:51:54.350Z,36.92
2019-05-14T06:54:24.328Z,37.25
2019-05-14T06:56:54.333Z,36.72
2019-05-14T06:59:24.238Z,37.00
2019-05-14T07:01:54.107Z,36.39
2019-05-14T07:04:24.010Z,35.31
2019-05-14T07:06:54.020Z,36.91
2019-05-14T07:09:23.923Z,37.29
2019-05-14T07:11:53.914Z,36.94
2019-05-14T07:14:25.046Z,34.93
2019-05-14T07:16:55.086Z,35.85
2019-05-14T07:19:25.118Z,34.57
2019-05-14T07:21:55.084Z,34.11
2019-05-14T07:24:25.177Z,34.43
2019-05-14T07:26:55.183Z,34.43
2019-05-14T07:29:25.247Z,34.48
2019-05-14T07:31:55.251Z,33.57
2019-05-14T07:34:25.318Z,33.70
2019-05-14T07:36:55.332Z,32.50
2019-05-14T07:39:25.320Z,32.22
2019-05-14T07:41:55.253Z,32.12
2019-05-14T07:44:25.336Z,31.93
2019-05-14T07:46:55.265Z,31.82
2019-05-14T07:49:25.192Z,32.08
2019-05-14T07:51:55.210Z,31.76
2019-05-14T07:54:28.162Z,32.52
2019-05-14T07:56:59.094Z,32.24
2019-05-14T07:59:30.566Z,30.92
2019-05-14T08:02:00.629Z,32.79
2019-05-14T08:04:32.049Z,30.24
2019-05-14T08:07:04.597Z,31.16
2019-05-14T08:09:38.996Z,28.61
2019-05-14T08:12:12.904Z,29.70
2019-05-14T08:14:57.919Z,29.70
2019-05-14T08:17:15.536Z,28.75
2019-05-14T08:19:46.318Z,30.08
2019-05-14T08:22:18.655Z,31.57
2019-05-14T08:24:49.100Z,29.91
2019-05-14T08:27:19.384Z,28.52
2019-05-14T08:29:49.358Z,29.13
2019-05-14T08:32:19.368Z,29.37
2019-05-14T08:34:49.347Z,30.08
2019-05-14T08:37:19.390Z,29.28
2019-05-14T08:39:49.353Z,28.20
2019-05-14T08:42:19.432Z,29.03
2019-05-14T08:44:51.451Z,29.82
2019-05-14T08:47:21.164Z,30.17
2019-05-14T08:49:51.238Z,29.32
2019-05-14T08:52:21.238Z,30.03
2019-05-14T08:55:05.588Z,31.54
2019-05-14T08:57:23.095Z,31.11
2019-05-14T08:59:53.641Z,32.86
2019-05-14T09:02:23.645Z,31.08
2019-05-14T09:04:55.103Z,31.61
2019-05-14T09:07:25.421Z,31.91
2019-05-14T09:09:55.389Z,32.59
2019-05-14T09:12:25.513Z,33.65
2019-05-14T09:14:55.515Z,34.77
2019-05-14T09:17:25.558Z,33.97
2019-05-14T09:20:05.799Z,34.56
2019-05-14T09:22:28.999Z,35.34
2019-05-14T09:25:00.042Z,37.36
2019-05-14T09:27:30.321Z,38.35
2019-05-14T09:30:00.377Z,38.80
2019-05-14T09:32:30.569Z,38.75
2019-05-14T09:35:00.569Z,38.96
2019-05-14T09:37:30.546Z,40.19
2019-05-14T09:40:00.622Z,41.41
2019-05-14T09:42:30.662Z,42.29
2019-05-14T09:45:00.808Z,41.97
2019-05-14T09:47:30.783Z,42.12
2019-05-14T09:50:15.286Z,42.22
2019-05-14T09:52:32.533Z,42.36
2019-05-14T09:55:02.686Z,41.36
2019-05-14T09:57:32.726Z,40.66
2019-05-14T10:00:05.914Z,36.51
2019-05-14T10:02:39.017Z,36.76
2019-05-14T10:05:09.885Z,36.92
2019-05-14T10:07:39.869Z,36.74
2019-05-14T10:10:10.493Z,37.70
2019-05-14T10:12:51.770Z,35.04
2019-05-14T10:15:12.964Z,35.74
2019-05-14T10:17:43.045Z,35.21
2019-05-14T10:20:13.948Z,35.76
2019-05-14T10:22:44.342Z,35.20
2019-05-14T10:25:14.684Z,36.32
2019-05-14T10:27:48.390Z,36.25
2019-05-14T10:30:18.274Z,35.43
2019-05-14T10:32:49.288Z,35.82
2019-05-14T10:35:19.710Z,36.44
2019-05-14T10:37:49.713Z,36.33
2019-05-14T10:40:19.691Z,35.09
2019-05-14T10:42:49.781Z,35.28
2019-05-14T10:45:20.814Z,35.10
2019-05-14T10:47:50.829Z,32.43
2019-05-14T10:50:20.812Z,31.26
2019-05-14T10:52:50.811Z,32.95
2019-05-14T10:55:20.782Z,31.76
2019-05-14T10:57:54.205Z,31.27
2019-05-14T11:00:23.849Z,32.29
2019-05-14T11:02:54.019Z,32.46
2019-05-14T11:05:24.722Z,33.74
2019-05-14T11:07:55.686Z,32.98
2019-05-14T11:10:26.130Z,33.81
2019-05-14T11:12:59.097Z,32.99
2019-05-14T11:15:28.560Z,33.65
2019-05-14T11:17:59.540Z,34.27
2019-05-14T11:20:31.143Z,36.44
2019-05-14T11:23:01.677Z,38.43
2019-05-14T11:25:31.671Z,40.41
2019-05-14T11:28:01.674Z,41.49
2019-05-14T11:30:31.651Z,43.45
2019-05-14T11:33:01.800Z,43.77
2019-05-14T11:35:31.833Z,45.83
2019-05-14T11:38:02.007Z,48.08
2019-05-14T11:40:32.033Z,45.97
2019-05-14T11:43:02.015Z,43.90
2019-05-14T11:45:32.016Z,43.94
2019-05-14T11:48:01.913Z,43.45
2019-05-14T11:50:33.316Z,39.75
2019-05-14T11:53:03.289Z,39.39
2019-05-14T11:55:33.299Z,39.99
2019-05-14T11:58:03.271Z,34.85
2019-05-14T12:00:33.416Z,34.64
2019-05-14T12:03:03.384Z,33.64
2019-05-14T12:05:33.391Z,33.41
2019-05-14T12:08:03.365Z,33.33
2019-05-14T12:10:33.448Z,32.25
2019-05-14T12:13:03.417Z,32.73
2019-05-14T12:15:34.693Z,33.65
2019-05-14T12:18:04.733Z,33.86
2019-05-14T12:20:34.741Z,33.65
2019-05-14T12:23:04.721Z,33.62
2019-05-14T12:25:34.799Z,34.08
2019-05-14T12:28:04.873Z,32.90
2019-05-14T12:30:34.867Z,33.70
2019-05-14T12:33:05.973Z,32.65
2019-05-14T12:35:41.367Z,32.14
2019-05-14T12:38:18.772Z,31.21
2019-05-14T12:40:50.858Z,31.24
2019-05-14T12:43:23.500Z,32.99
2019-05-14T12:45:54.357Z,33.15
2019-05-14T12:48:29.508Z,31.46
2019-05-14T12:50:59.497Z,32.54
2019-05-14T12:53:31.037Z,31.79
2019-05-14T12:56:01.368Z,33.54
2019-05-14T12:58:31.982Z,33.43
2019-05-14T13:01:02.134Z,33.79
2019-05-14T13:03:32.569Z,33.23
2019-05-14T13:06:04.125Z,33.91
2019-05-14T13:08:34.210Z,32.95
2019-05-14T13:11:04.302Z,32.02
2019-05-14T13:13:35.322Z,31.26
2019-05-14T13:16:08.250Z,31.88
2019-05-14T13:18:39.029Z,34.17
2019-05-14T13:21:09.634Z,31.08
2019-05-14T13:23:40.445Z,30.84
2019-05-14T13:26:11.629Z,31.78
2019-05-14T13:28:42.257Z,30.88
2019-05-14T13:31:29.308Z,28.04
2019-05-14T13:34:01.998Z,28.76
2019-05-14T13:36:33.111Z,27.44
2019-05-14T13:39:08.980Z,25.53
2019-05-14T13:41:41.571Z,24.84
2019-05-14T13:44:21.232Z,23.93
2019-05-14T13:46:43.175Z,24.12
2019-05-14T13:49:13.331Z,24.53
2019-05-14T13:51:44.625Z,24.53
2019-05-14T13:54:19.125Z,25.18
2019-05-14T13:56:51.107Z,30.04
2019-05-14T13:59:44.738Z,31.84
2019-05-14T14:02:18.933Z,32.51
2019-05-14T14:04:48.774Z,32.36
2019-05-14T14:07:19.202Z,32.86
2019-05-14T14:09:50.173Z,33.27
2019-05-14T14:12:20.151Z,32.05
2019-05-14T14:14:50.159Z,32.79
2019-05-14T14:17:20.706Z,31.61
2019-05-14T14:19:50.850Z,31.52
2019-05-14T14:22:20.926Z,30.38
2019-05-14T14:24:50.923Z,31.38
2019-05-14T14:27:20.891Z,31.03
2019-05-14T14:29:50.902Z,30.37
2019-05-14T14:32:21.301Z,31.62
2019-05-14T14:34:51.332Z,30.54
2019-05-14T14:37:22.436Z,30.63
2019-05-14T14:39:52.575Z,30.67
2019-05-14T14:42:22.622Z,28.76
2019-05-14T14:44:52.700Z,27.38
2019-05-14T14:47:22.668Z,27.47
2019-05-14T14:49:52.671Z,26.72
2019-05-14T14:52:22.726Z,28.44
2019-05-14T14:54:52.621Z,29.85
2019-05-14T14:57:23.072Z,33.69
2019-05-14T14:59:56.193Z,37.08
2019-05-14T15:02:28.684Z,39.01
2019-05-14T15:04:59.592Z,41.47
2019-05-14T15:07:30.380Z,40.66
2019-05-14T15:10:00.510Z,41.38
2019-05-14T15:12:30.617Z,43.31
2019-05-14T15:15:00.731Z,43.00
2019-05-14T15:17:30.870Z,40.94
2019-05-14T15:20:00.949Z,43.53
2019-05-14T15:22:31.422Z,43.04
2019-05-14T15:25:01.916Z,44.10
2019-05-14T15:27:32.466Z,42.13
2019-05-14T15:30:02.662Z,40.81
2019-05-14T15:32:32.883Z,38.68
2019-05-14T15:35:03.908Z,38.79
2019-05-14T15:37:34.477Z,40.03
2019-05-14T15:40:08.862Z,40.17
2019-05-14T15:42:39.714Z,36.62
2019-05-14T15:45:11.618Z,35.86
2019-05-14T15:47:41.758Z,35.56
2019-05-14T15:50:11.826Z,35.62
2019-05-14T15:52:42.506Z,36.18
2019-05-14T15:55:14.413Z,34.76
2019-05-14T15:57:46.405Z,32.59
2019-05-14T16:00:19.753Z,30.10
2019-05-14T16:02:50.522Z,28.47
2019-05-14T16:05:23.627Z,29.55
2019-05-14T16:07:53.830Z,32.06
2019-05-14T16:10:23.876Z,32.56
2019-05-14T16:12:53.969Z,33.40
2019-05-14T16:15:24.037Z,34.15
2019-05-14T16:18:07.484Z,34.66
2019-05-14T16:20:26.033Z,36.04
2019-05-14T16:22:58.828Z,35.20
2019-05-14T16:25:29.727Z,36.47
2019-05-14T16:27:59.766Z,36.88
2019-05-14T16:30:29.803Z,37.44
2019-05-14T16:32:59.964Z,38.95
2019-05-14T16:35:32.163Z,37.12
2019-05-14T16:38:02.167Z,36.89
2019-05-14T16:40:32.210Z,38.49
2019-05-14T16:43:02.529Z,39.06
2019-05-14T16:45:34.425Z,39.80
2019-05-14T16:48:04.412Z,39.75
2019-05-14T16:50:34.526Z,39.95
2019-05-14T16:53:04.498Z,40.82
2019-05-14T16:55:34.498Z,41.42
2019-05-14T16:58:04.539Z,40.61
2019-05-14T17:00:34.881Z,40.93
2019-05-14T17:03:05.271Z,40.67
2019-05-14T17:05:35.270Z,39.55
2019-05-14T17:08:05.308Z,39.77
2019-05-14T17:10:35.315Z,38.65
2019-05-14T17:13:05.354Z,37.78
2019-05-14T17:15:35.325Z,37.54
2019-05-14T17:18:05.401Z,36.98
2019-05-14T17:20:35.439Z,37.68
2019-05-14T17:23:05.589Z,36.78
2019-05-14T17:25:35.591Z,36.29
2019-05-14T17:28:05.568Z,37.13
2019-05-14T17:30:35.571Z,36.36
2019-05-14T17:33:05.860Z,36.00
2019-05-14T17:35:38.927Z,36.37
2019-05-14T17:38:09.419Z,36.94
2019-05-14T17:40:39.794Z,36.87
2019-05-14T17:43:10.243Z,36.59
2019-05-14T17:45:40.331Z,37.31
2019-05-14T17:48:10.310Z,38.24
2019-05-14T17:50:40.378Z,39.05
